sensor_id;sensor_type;location;lat;lon;timestamp;pressure;altitude;pressure_sealevel;temperature;humidity
69247;BME280;56358;56.328;43.992;2024-02-26T00:01:06;102522.69;;;-5.02;46.04
69247;BME280;56358;56.328;43.992;2024-02-26T00:03:07;102427.50;;;-5.55;46.34
69247;BME280;56358;56.328;43.992;2024-02-26T00:05:08;102512.16;;;-5.05;45.98
69247;BME280;56358;56.328;43.992;2024-02-26T00:07:09;102507.72;;;-5.09;46.42
69247;BME280;56358;56.328;43.992;2024-02-26T00:09:10;102479.50;;;-5.27;45.66
69247;BME280;56358;56.328;43.992;2024-02-26T00:11:10;102504.91;;;-5.18;45.76
69247;BME280;56358;56.328;43.992;2024-02-26T00:13:11;102522.59;;;-5.07;45.31
69247;BME280;56358;56.328;43.992;2024-02-26T00:15:12;102519.94;;;-5.10;46.00
69247;BME280;56358;56.328;43.992;2024-02-26T00:17:13;102502.06;;;-5.31;45.92
69247;BME280;56358;56.328;43.992;2024-02-26T00:19:14;102506.63;;;-5.22;45.86
69247;BME280;56358;56.328;43.992;2024-02-26T00:21:14;102511.13;;;-5.13;45.99
69247;BME280;56358;56.328;43.992;2024-02-26T00:23:16;102507.38;;;-5.28;45.89
69247;BME280;56358;56.328;43.992;2024-02-26T00:25:16;102478.56;;;-5.29;45.63
69247;BME280;56358;56.328;43.992;2024-02-26T00:27:18;102495.25;;;-5.23;46.09
69247;BME280;56358;56.328;43.992;2024-02-26T00:29:19;102510.03;;;-5.26;46.34
69247;BME280;56358;56.328;43.992;2024-02-26T00:31:20;102507.53;;;-5.18;46.42
69247;BME280;56358;56.328;43.992;2024-02-26T00:33:21;102508.41;;;-5.19;46.65
69247;BME280;56358;56.328;43.992;2024-02-26T00:35:22;102498.78;;;-5.22;46.28
69247;BME280;56358;56.328;43.992;2024-02-26T00:37:22;102497.81;;;-5.26;46.58
69247;BME280;56358;56.328;43.992;2024-02-26T00:39:23;102505.66;;;-5.26;46.42
69247;BME280;56358;56.328;43.992;2024-02-26T00:41:24;102488.19;;;-5.28;46.79
69247;BME280;56358;56.328;43.992;2024-02-26T00:43:24;102477.38;;;-5.45;47.54
69247;BME280;56358;56.328;43.992;2024-02-26T00:45:27;102482.72;;;-5.39;47.12
69247;BME280;56358;56.328;43.992;2024-02-26T00:47:28;102495.84;;;-5.36;47.38
69247;BME280;56358;56.328;43.992;2024-02-26T00:49:28;102503.72;;;-5.34;46.74
69247;BME280;56358;56.328;43.992;2024-02-26T00:51:29;102473.91;;;-5.44;47.17
69247;BME280;56358;56.328;43.992;2024-02-26T00:53:30;102481.06;;;-5.35;48.13
69247;BME280;56358;56.328;43.992;2024-02-26T00:55:30;102487.16;;;-5.35;47.57
69247;BME280;56358;56.328;43.992;2024-02-26T00:57:31;102481.91;;;-5.36;47.84
69247;BME280;56358;56.328;43.992;2024-02-26T00:59:32;102488.88;;;-5.37;47.19
69247;BME280;56358;56.328;43.992;2024-02-26T01:01:32;102464.09;;;-5.55;46.97
69247;BME280;56358;56.328;43.992;2024-02-26T01:03:33;102477.38;;;-5.45;46.81
69247;BME280;56358;56.328;43.992;2024-02-26T01:05:34;102481.06;;;-5.37;46.48
69247;BME280;56358;56.328;43.992;2024-02-26T01:07:35;102459.84;;;-5.51;46.71
69247;BME280;56358;56.328;43.992;2024-02-26T01:09:36;102462.56;;;-5.46;47.09
69247;BME280;56358;56.328;43.992;2024-02-26T01:11:37;102404.25;;;-5.86;46.40
69247;BME280;56358;56.328;43.992;2024-02-26T01:13:37;102474.91;;;-5.38;46.42
69247;BME280;56358;56.328;43.992;2024-02-26T01:15:38;102476.56;;;-5.41;46.66
69247;BME280;56358;56.328;43.992;2024-02-26T01:17:39;102459.94;;;-5.46;46.79
69247;BME280;56358;56.328;43.992;2024-02-26T01:19:39;102474.06;;;-5.36;46.45
69247;BME280;56358;56.328;43.992;2024-02-26T01:21:41;102454.50;;;-5.57;46.75
69247;BME280;56358;56.328;43.992;2024-02-26T01:23:42;102436.03;;;-5.66;46.72
69247;BME280;56358;56.328;43.992;2024-02-26T01:25:43;102473.97;;;-5.41;46.25
69247;BME280;56358;56.328;43.992;2024-02-26T01:27:43;102479.13;;;-5.44;45.94
69247;BME280;56358;56.328;43.992;2024-02-26T01:29:45;102479.13;;;-5.46;46.40
69247;BME280;56358;56.328;43.992;2024-02-26T01:31:45;102476.50;;;-5.46;46.80
69247;BME280;56358;56.328;43.992;2024-02-26T01:33:46;102458.97;;;-5.51;47.01
69247;BME280;56358;56.328;43.992;2024-02-26T01:35:47;102471.28;;;-5.44;47.42
69247;BME280;56358;56.328;43.992;2024-02-26T01:37:48;102470.28;;;-5.51;46.75
69247;BME280;56358;56.328;43.992;2024-02-26T01:39:48;102479.13;;;-5.44;46.93
69247;BME280;56358;56.328;43.992;2024-02-26T01:41:49;102443.91;;;-5.63;47.97
69247;BME280;56358;56.328;43.992;2024-02-26T01:43:50;102466.78;;;-5.53;47.13
69247;BME280;56358;56.328;43.992;2024-02-26T01:45:51;102458.78;;;-5.61;47.78
69247;BME280;56358;56.328;43.992;2024-02-26T01:47:52;102460.63;;;-5.55;48.09
69247;BME280;56358;56.328;43.992;2024-02-26T01:49:53;102472.81;;;-5.56;48.65
69247;BME280;56358;56.328;43.992;2024-02-26T01:51:54;102457.97;;;-5.58;47.57
69247;BME280;56358;56.328;43.992;2024-02-26T01:53:55;102355.03;;;-6.11;47.32
69247;BME280;56358;56.328;43.992;2024-02-26T01:55:56;102458.81;;;-5.58;47.45
69247;BME280;56358;56.328;43.992;2024-02-26T01:57:57;102435.97;;;-5.68;47.63
69247;BME280;56358;56.328;43.992;2024-02-26T01:59:58;102431.66;;;-5.66;47.36
69247;BME280;56358;56.328;43.992;2024-02-26T02:02:01;102385.66;;;-6.02;47.29
69247;BME280;56358;56.328;43.992;2024-02-26T02:04:03;102455.22;;;-5.63;46.89
69247;BME280;56358;56.328;43.992;2024-02-26T02:06:04;102450.88;;;-5.64;46.84
69247;BME280;56358;56.328;43.992;2024-02-26T02:08:05;102427.09;;;-5.75;47.67
69247;BME280;56358;56.328;43.992;2024-02-26T02:10:07;102450.88;;;-5.64;47.19
69247;BME280;56358;56.328;43.992;2024-02-26T02:12:08;102433.19;;;-5.77;47.57
69247;BME280;56358;56.328;43.992;2024-02-26T02:14:09;102456.94;;;-5.65;47.87
69247;BME280;56358;56.328;43.992;2024-02-26T02:16:09;102459.41;;;-5.71;47.65
69247;BME280;56358;56.328;43.992;2024-02-26T02:18:10;102408.56;;;-5.87;47.52
69247;BME280;56358;56.328;43.992;2024-02-26T02:20:18;102452.56;;;-5.66;48.41
69247;BME280;56358;56.328;43.992;2024-02-26T02:22:18;102342.47;;;-6.27;48.48
69247;BME280;56358;56.328;43.992;2024-02-26T02:24:19;102448.22;;;-5.65;48.39
69247;BME280;56358;56.328;43.992;2024-02-26T02:26:20;102449.03;;;-5.68;48.49
69247;BME280;56358;56.328;43.992;2024-02-26T02:28:21;102442.13;;;-5.66;47.64
69247;BME280;56358;56.328;43.992;2024-02-26T02:30:28;102444.78;;;-5.63;47.73
69247;BME280;56358;56.328;43.992;2024-02-26T02:32:29;102339.97;;;-6.22;47.86
69247;BME280;56358;56.328;43.992;2024-02-26T02:34:31;102440.19;;;-5.75;47.63
69247;BME280;56358;56.328;43.992;2024-02-26T02:36:33;102430.47;;;-5.80;47.67
69247;BME280;56358;56.328;43.992;2024-02-26T02:38:33;102349.50;;;-6.25;47.88
69247;BME280;56358;56.328;43.992;2024-02-26T02:40:34;102433.31;;;-5.69;47.81
69247;BME280;56358;56.328;43.992;2024-02-26T02:42:35;102425.16;;;-5.86;47.86
69247;BME280;56358;56.328;43.992;2024-02-26T02:44:36;102415.53;;;-5.87;47.69
69247;BME280;56358;56.328;43.992;2024-02-26T02:46:37;102448.19;;;-5.67;47.91
69247;BME280;56358;56.328;43.992;2024-02-26T02:48:38;102421.78;;;-5.81;47.92
69247;BME280;56358;56.328;43.992;2024-02-26T02:50:39;102420.00;;;-5.82;48.30
69247;BME280;56358;56.328;43.992;2024-02-26T02:52:40;102427.84;;;-5.82;48.29
69247;BME280;56358;56.328;43.992;2024-02-26T02:54:40;102427.88;;;-5.80;48.21
69247;BME280;56358;56.328;43.992;2024-02-26T02:56:42;102365.34;;;-6.15;48.08
69247;BME280;56358;56.328;43.992;2024-02-26T02:58:43;102433.22;;;-5.74;48.42
69247;BME280;56358;56.328;43.992;2024-02-26T03:00:44;102439.47;;;-5.67;48.86
69247;BME280;56358;56.328;43.992;2024-02-26T03:02:45;102416.56;;;-5.81;47.90
69247;BME280;56358;56.328;43.992;2024-02-26T03:04:46;102444.72;;;-5.66;47.84
69247;BME280;56358;56.328;43.992;2024-02-26T03:06:47;102418.16;;;-5.87;48.36
69247;BME280;56358;56.328;43.992;2024-02-26T03:08:47;102448.19;;;-5.67;47.67
69247;BME280;56358;56.328;43.992;2024-02-26T03:10:48;102365.53;;;-6.08;48.13
69247;BME280;56358;56.328;43.992;2024-02-26T03:12:49;102382.22;;;-5.99;47.97
69247;BME280;56358;56.328;43.992;2024-02-26T03:14:50;102433.41;;;-5.66;48.04
69247;BME280;56358;56.328;43.992;2024-02-26T03:16:54;102444.00;;;-5.59;48.42
69247;BME280;56358;56.328;43.992;2024-02-26T03:18:55;102444.06;;;-5.56;48.24
69247;BME280;56358;56.328;43.992;2024-02-26T03:20:56;102440.47;;;-5.61;48.18
69247;BME280;56358;56.328;43.992;2024-02-26T03:22:57;102414.09;;;-5.73;47.77
69247;BME280;56358;56.328;43.992;2024-02-26T03:24:57;102430.00;;;-5.62;48.72
69247;BME280;56358;56.328;43.992;2024-02-26T03:26:58;102452.91;;;-5.50;48.75
69247;BME280;56358;56.328;43.992;2024-02-26T03:28:59;102452.03;;;-5.48;48.16
69247;BME280;56358;56.328;43.992;2024-02-26T03:31:01;102442.50;;;-5.47;48.03
69247;BME280;56358;56.328;43.992;2024-02-26T03:33:02;102401.13;;;-5.68;48.21
69247;BME280;56358;56.328;43.992;2024-02-26T03:35:04;102366.78;;;-5.87;47.77
69247;BME280;56358;56.328;43.992;2024-02-26T03:37:04;102350.94;;;-5.95;47.87
69247;BME280;56358;56.328;43.992;2024-02-26T03:39:06;102451.38;;;-5.38;47.47
69247;BME280;56358;56.328;43.992;2024-02-26T03:41:08;102369.47;;;-5.84;47.64
69247;BME280;56358;56.328;43.992;2024-02-26T03:43:09;102435.53;;;-5.45;47.38
69247;BME280;56358;56.328;43.992;2024-02-26T03:45:10;102432.81;;;-5.51;47.80
69247;BME280;56358;56.328;43.992;2024-02-26T03:47:11;102409.81;;;-5.68;49.56
69247;BME280;56358;56.328;43.992;2024-02-26T03:49:11;102440.84;;;-5.42;48.51
69247;BME280;56358;56.328;43.992;2024-02-26T03:51:13;102433.03;;;-5.41;48.93
69247;BME280;56358;56.328;43.992;2024-02-26T03:53:14;102449.72;;;-5.34;48.15
69247;BME280;56358;56.328;43.992;2024-02-26T03:55:15;102445.34;;;-5.35;48.32
69247;BME280;56358;56.328;43.992;2024-02-26T03:57:15;102432.94;;;-5.45;48.41
69247;BME280;56358;56.328;43.992;2024-02-26T03:59:16;102441.78;;;-5.39;48.22
69247;BME280;56358;56.328;43.992;2024-02-26T04:01:17;102438.25;;;-5.42;48.74
69247;BME280;56358;56.328;43.992;2024-02-26T04:03:18;102461.19;;;-5.27;48.87
69247;BME280;56358;56.328;43.992;2024-02-26T04:05:18;102449.72;;;-5.34;48.73
69247;BME280;56358;56.328;43.992;2024-02-26T04:07:19;102455.13;;;-5.25;48.25
69247;BME280;56358;56.328;43.992;2024-02-26T04:09:20;102468.22;;;-5.23;48.50
69247;BME280;56358;56.328;43.992;2024-02-26T04:11:20;102457.81;;;-5.22;48.38
69247;BME280;56358;56.328;43.992;2024-02-26T04:13:22;102443.78;;;-5.25;48.53
69247;BME280;56358;56.328;43.992;2024-02-26T04:15:23;102449.94;;;-5.22;48.75
69247;BME280;56358;56.328;43.992;2024-02-26T04:17:23;102457.94;;;-5.15;48.56
69247;BME280;56358;56.328;43.992;2024-02-26T04:19:24;102452.72;;;-5.14;48.58
69247;BME280;56358;56.328;43.992;2024-02-26T04:21:25;102361.09;;;-5.67;48.99
69247;BME280;56358;56.328;43.992;2024-02-26T04:23:25;102335.50;;;-5.84;48.26
69247;BME280;56358;56.328;43.992;2024-02-26T04:25:26;102453.53;;;-5.16;48.39
69247;BME280;56358;56.328;43.992;2024-02-26T04:27:28;102422.00;;;-5.24;48.27
69247;BME280;56358;56.328;43.992;2024-02-26T04:29:29;102429.16;;;-5.15;48.80
69247;BME280;56358;56.328;43.992;2024-02-26T04:31:30;102439.84;;;-5.03;48.01
69247;BME280;56358;56.328;43.992;2024-02-26T04:33:36;102451.25;;;-4.99;48.28
69247;BME280;56358;56.328;43.992;2024-02-26T04:35:36;102460.91;;;-4.95;48.54
69247;BME280;56358;56.328;43.992;2024-02-26T04:37:37;102446.88;;;-5.00;48.76
69247;BME280;56358;56.328;43.992;2024-02-26T04:39:38;102438.03;;;-5.07;48.65
69247;BME280;56358;56.328;43.992;2024-02-26T04:41:39;102456.59;;;-4.92;48.96
69247;BME280;56358;56.328;43.992;2024-02-26T04:43:40;102462.78;;;-4.86;48.67
69247;BME280;56358;56.328;43.992;2024-02-26T04:45:41;102468.13;;;-4.82;48.65
69247;BME280;56358;56.328;43.992;2024-02-26T04:47:42;102475.19;;;-4.78;49.17
69247;BME280;56358;56.328;43.992;2024-02-26T04:49:43;102368.66;;;-5.35;48.32
69247;BME280;56358;56.328;43.992;2024-02-26T04:51:43;102466.53;;;-4.72;48.01
69247;BME280;56358;56.328;43.992;2024-02-26T04:53:44;102446.34;;;-4.81;47.90
69247;BME280;56358;56.328;43.992;2024-02-26T04:55:44;102240.38;;;-5.95;48.45
69247;BME280;56358;56.328;43.992;2024-02-26T04:57:45;102461.59;;;-4.55;48.75
69247;BME280;56358;56.328;43.992;2024-02-26T04:59:46;102461.63;;;-4.53;48.60
69247;BME280;56358;56.328;43.992;2024-02-26T05:01:46;102423.81;;;-4.71;48.31
69247;BME280;56358;56.328;43.992;2024-02-26T05:03:47;102464.41;;;-4.43;48.90
69247;BME280;56358;56.328;43.992;2024-02-26T05:05:48;102465.41;;;-4.36;48.23
69247;BME280;56358;56.328;43.992;2024-02-26T05:07:49;102468.03;;;-4.34;47.67
69247;BME280;56358;56.328;43.992;2024-02-26T05:09:49;102465.47;;;-4.31;47.39
69247;BME280;56358;56.328;43.992;2024-02-26T05:11:50;102462.91;;;-4.28;47.56
69247;BME280;56358;56.328;43.992;2024-02-26T05:13:51;102431.06;;;-4.53;47.44
69247;BME280;56358;56.328;43.992;2024-02-26T05:15:51;102456.72;;;-4.32;47.69
69247;BME280;56358;56.328;43.992;2024-02-26T05:17:52;102474.22;;;-4.29;48.22
69247;BME280;56358;56.328;43.992;2024-02-26T05:19:53;102368.56;;;-4.90;47.85
69247;BME280;56358;56.328;43.992;2024-02-26T05:21:54;102472.47;;;-4.29;47.21
69247;BME280;56358;56.328;43.992;2024-02-26T05:23:55;102464.47;;;-4.40;47.02
69247;BME280;56358;56.328;43.992;2024-02-26T05:25:55;102468.19;;;-4.25;47.07
69247;BME280;56358;56.328;43.992;2024-02-26T05:27:56;102468.31;;;-4.17;47.22
69247;BME280;56358;56.328;43.992;2024-02-26T05:29:57;102374.06;;;-4.73;46.93
69247;BME280;56358;56.328;43.992;2024-02-26T05:31:57;102469.16;;;-4.17;47.84
69247;BME280;56358;56.328;43.992;2024-02-26T05:33:58;102474.44;;;-4.15;48.03
69247;BME280;56358;56.328;43.992;2024-02-26T05:35:59;102450.78;;;-4.22;48.26
69247;BME280;56358;56.328;43.992;2024-02-26T05:38:04;102461.41;;;-4.12;47.15
69247;BME280;56358;56.328;43.992;2024-02-26T05:40:06;102364.44;;;-4.75;47.14
69247;BME280;56358;56.328;43.992;2024-02-26T05:42:07;102400.59;;;-4.51;46.86
69247;BME280;56358;56.328;43.992;2024-02-26T05:44:11;102465.69;;;-4.17;47.05
69247;BME280;56358;56.328;43.992;2024-02-26T05:46:12;102457.72;;;-4.24;46.44
69247;BME280;56358;56.328;43.992;2024-02-26T05:48:12;102473.66;;;-4.10;46.69
69247;BME280;56358;56.328;43.992;2024-02-26T05:50:13;102498.00;;;-4.15;46.34
69247;BME280;56358;56.328;43.992;2024-02-26T05:52:15;102471.47;;;-4.37;46.42
69247;BME280;56358;56.328;43.992;2024-02-26T05:54:16;102470.78;;;-4.27;47.30
69247;BME280;56358;56.328;43.992;2024-02-26T05:56:17;102464.59;;;-4.30;47.34
69247;BME280;56358;56.328;43.992;2024-02-26T05:58:17;102484.06;;;-4.14;47.02
69247;BME280;56358;56.328;43.992;2024-02-26T06:00:18;102474.50;;;-4.12;46.98
69247;BME280;56358;56.328;43.992;2024-02-26T06:02:19;102432.31;;;-4.29;46.74
69247;BME280;56358;56.328;43.992;2024-02-26T06:04:19;102470.09;;;-4.15;46.51
69247;BME280;56358;56.328;43.992;2024-02-26T06:06:20;102465.72;;;-4.16;46.56
69247;BME280;56358;56.328;43.992;2024-02-26T06:08:23;102355.63;;;-4.80;46.41
69247;BME280;56358;56.328;43.992;2024-02-26T06:10:23;102471.03;;;-4.10;47.04
69247;BME280;56358;56.328;43.992;2024-02-26T06:12:24;102462.28;;;-4.12;47.59
69247;BME280;56358;56.328;43.992;2024-02-26T06:14:26;102471.09;;;-4.07;46.69
69247;BME280;56358;56.328;43.992;2024-02-26T06:16:27;102485.13;;;-4.03;46.77
69247;BME280;56358;56.328;43.992;2024-02-26T06:18:28;102472.03;;;-4.01;46.71
69247;BME280;56358;56.328;43.992;2024-02-26T06:20:29;102474.69;;;-4.00;47.24
69247;BME280;56358;56.328;43.992;2024-02-26T06:22:29;102464.19;;;-4.00;47.03
69247;BME280;56358;56.328;43.992;2024-02-26T06:24:30;102418.22;;;-4.39;46.91
69247;BME280;56358;56.328;43.992;2024-02-26T06:26:31;102451.81;;;-4.09;47.10
69247;BME280;56358;56.328;43.992;2024-02-26T06:28:33;102479.09;;;-3.96;47.61
69247;BME280;56358;56.328;43.992;2024-02-26T06:30:36;102472.06;;;-3.98;46.92
69247;BME280;56358;56.328;43.992;2024-02-26T06:32:37;102475.59;;;-3.96;47.05
69247;BME280;56358;56.328;43.992;2024-02-26T06:34:38;102485.16;;;-3.98;46.67
69247;BME280;56358;56.328;43.992;2024-02-26T06:36:39;102480.72;;;-4.06;46.66
69247;BME280;56358;56.328;43.992;2024-02-26T06:38:40;102466.72;;;-4.05;46.80
69247;BME280;56358;56.328;43.992;2024-02-26T06:40:40;102474.63;;;-4.03;48.28
69247;BME280;56358;56.328;43.992;2024-02-26T06:42:41;102417.00;;;-4.61;46.92
69247;BME280;56358;56.328;43.992;2024-02-26T06:44:44;102469.31;;;-4.08;46.98
69247;BME280;56358;56.328;43.992;2024-02-26T06:46:44;102456.22;;;-4.08;47.41
69247;BME280;56358;56.328;43.992;2024-02-26T06:48:45;102458.13;;;-3.97;47.98
69247;BME280;56358;56.328;43.992;2024-02-26T06:50:46;102450.13;;;-4.07;46.94
69247;BME280;56358;56.328;43.992;2024-02-26T06:52:47;102465.16;;;-3.95;47.34
69247;BME280;56358;56.328;43.992;2024-02-26T06:54:47;102470.50;;;-3.87;46.68
69247;BME280;56358;56.328;43.992;2024-02-26T06:56:51;102470.50;;;-3.87;47.06
69247;BME280;56358;56.328;43.992;2024-02-26T06:58:52;102468.03;;;-3.76;47.74
69247;BME280;56358;56.328;43.992;2024-02-26T07:00:52;102474.28;;;-3.63;48.29
69247;BME280;56358;56.328;43.992;2024-02-26T07:02:53;102483.09;;;-3.60;47.26
69247;BME280;56358;56.328;43.992;2024-02-26T07:04:54;102365.31;;;-4.15;47.43
69247;BME280;56358;56.328;43.992;2024-02-26T07:06:56;102454.25;;;-3.60;47.27
69247;BME280;56358;56.328;43.992;2024-02-26T07:08:57;102440.19;;;-3.66;47.18
69247;BME280;56358;56.328;43.992;2024-02-26T07:10:57;102485.03;;;-3.42;46.62
69247;BME280;56358;56.328;43.992;2024-02-26T07:12:58;102458.75;;;-3.49;46.98
69247;BME280;56358;56.328;43.992;2024-02-26T07:14:59;102449.16;;;-3.47;47.37
69247;BME280;56358;56.328;43.992;2024-02-26T07:17:00;102457.13;;;-3.38;46.41
69247;BME280;56358;56.328;43.992;2024-02-26T07:19:01;102472.06;;;-3.31;46.99
69247;BME280;56358;56.328;43.992;2024-02-26T07:21:03;102485.28;;;-3.22;47.01
69247;BME280;56358;56.328;43.992;2024-02-26T07:23:04;102400.00;;;-3.64;46.59
69247;BME280;56358;56.328;43.992;2024-02-26T07:25:05;102465.91;;;-3.34;47.48
69247;BME280;56358;56.328;43.992;2024-02-26T07:27:08;102481.88;;;-3.16;47.27
69247;BME280;56358;56.328;43.992;2024-02-26T07:29:08;102469.69;;;-3.09;46.92
69247;BME280;56358;56.328;43.992;2024-02-26T07:31:09;102449.56;;;-3.10;47.04
69247;BME280;56358;56.328;43.992;2024-02-26T07:33:10;102469.00;;;-2.91;47.22
69247;BME280;56358;56.328;43.992;2024-02-26T07:35:10;102455.91;;;-2.88;47.12
69247;BME280;56358;56.328;43.992;2024-02-26T07:37:11;102470.13;;;-2.64;46.75
69247;BME280;56358;56.328;43.992;2024-02-26T07:39:12;102471.06;;;-2.55;46.03
69247;BME280;56358;56.328;43.992;2024-02-26T07:41:13;102480.84;;;-2.40;46.21
69247;BME280;56358;56.328;43.992;2024-02-26T07:43:14;102484.38;;;-2.36;46.29
69247;BME280;56358;56.328;43.992;2024-02-26T07:45:15;102472.16;;;-2.29;46.13
69247;BME280;56358;56.328;43.992;2024-02-26T07:47:16;102468.72;;;-2.21;46.99
69247;BME280;56358;56.328;43.992;2024-02-26T07:49:17;102439.75;;;-2.31;46.52
69247;BME280;56358;56.328;43.992;2024-02-26T07:51:17;102483.72;;;-2.07;45.59
69247;BME280;56358;56.328;43.992;2024-02-26T07:53:18;102386.16;;;-2.60;45.85
69247;BME280;56358;56.328;43.992;2024-02-26T07:55:19;102474.97;;;-2.02;45.50
69247;BME280;56358;56.328;43.992;2024-02-26T07:57:19;102473.25;;;-1.99;45.48
69247;BME280;56358;56.328;43.992;2024-02-26T07:59:21;102473.28;;;-1.96;46.37
69247;BME280;56358;56.328;43.992;2024-02-26T08:01:22;102460.06;;;-2.07;45.70
69247;BME280;56358;56.328;43.992;2024-02-26T08:03:23;102448.69;;;-2.02;45.94
69247;BME280;56358;56.328;43.992;2024-02-26T08:05:24;102450.41;;;-2.08;45.37
69247;BME280;56358;56.328;43.992;2024-02-26T08:07:25;102451.31;;;-2.05;45.57
69247;BME280;56358;56.328;43.992;2024-02-26T08:09:26;102464.53;;;-1.94;46.72
69247;BME280;56358;56.328;43.992;2024-02-26T08:11:27;102461.09;;;-1.83;46.16
69247;BME280;56358;56.328;43.992;2024-02-26T08:13:28;102462.88;;;-1.79;46.38
69247;BME280;56358;56.328;43.992;2024-02-26T08:15:29;102459.38;;;-1.75;45.75
69247;BME280;56358;56.328;43.992;2024-02-26T08:17:29;102358.28;;;-2.34;45.51
69247;BME280;56358;56.328;43.992;2024-02-26T08:19:30;102450.56;;;-1.82;45.52
69247;BME280;56358;56.328;43.992;2024-02-26T08:21:31;102466.34;;;-1.79;46.09
69247;BME280;56358;56.328;43.992;2024-02-26T08:23:31;102457.59;;;-1.79;45.69
69247;BME280;56358;56.328;43.992;2024-02-26T08:25:32;102457.56;;;-1.82;46.12
69247;BME280;56358;56.328;43.992;2024-02-26T08:27:33;102442.69;;;-1.83;46.13
69247;BME280;56358;56.328;43.992;2024-02-26T08:29:33;102443.53;;;-1.86;45.29
69247;BME280;56358;56.328;43.992;2024-02-26T08:31:34;102369.72;;;-2.25;46.09
69247;BME280;56358;56.328;43.992;2024-02-26T08:33:37;102459.44;;;-1.66;46.72
69247;BME280;56358;56.328;43.992;2024-02-26T08:35:38;102452.44;;;-1.58;46.77
69247;BME280;56358;56.328;43.992;2024-02-26T08:37:39;102457.69;;;-1.55;45.56
69247;BME280;56358;56.328;43.992;2024-02-26T08:39:40;102361.97;;;-1.98;46.25
69247;BME280;56358;56.328;43.992;2024-02-26T08:41:41;102449.03;;;-1.32;45.61
69247;BME280;56358;56.328;43.992;2024-02-26T08:43:41;102449.91;;;-1.27;45.55
69247;BME280;56358;56.328;43.992;2024-02-26T08:45:42;102443.78;;;-1.18;45.27
69247;BME280;56358;56.328;43.992;2024-02-26T08:47:45;102443.84;;;-0.95;45.52
69247;BME280;56358;56.328;43.992;2024-02-26T08:49:46;102442.09;;;-0.90;45.67
69247;BME280;56358;56.328;43.992;2024-02-26T08:51:46;102435.06;;;-0.97;45.29
69247;BME280;56358;56.328;43.992;2024-02-26T08:53:47;102441.22;;;-0.70;45.57
69247;BME280;56358;56.328;43.992;2024-02-26T08:55:48;102428.06;;;-0.59;44.51
69247;BME280;56358;56.328;43.992;2024-02-26T08:57:48;102438.59;;;-0.39;44.39
69247;BME280;56358;56.328;43.992;2024-02-26T08:59:49;102411.34;;;-0.46;43.81
69247;BME280;56358;56.328;43.992;2024-02-26T09:01:50;102438.59;;;-0.25;44.83
69247;BME280;56358;56.328;43.992;2024-02-26T09:03:50;102428.91;;;-0.15;44.41
69247;BME280;56358;56.328;43.992;2024-02-26T09:05:51;102412.22;;;-0.21;43.93
69247;BME280;56358;56.328;43.992;2024-02-26T09:07:52;102417.44;;;-0.08;44.46
69247;BME280;56358;56.328;43.992;2024-02-26T09:09:53;102414.81;;;-0.04;43.39
69247;BME280;56358;56.328;43.992;2024-02-26T09:11:54;102425.31;;;0.13;43.10
69247;BME280;56358;56.328;43.992;2024-02-26T09:13:55;102434.88;;;0.42;43.27
69247;BME280;56358;56.328;43.992;2024-02-26T09:15:56;102407.63;;;0.40;42.02
69247;BME280;56358;56.328;43.992;2024-02-26T09:17:57;102340.84;;;0.26;40.96
69247;BME280;56358;56.328;43.992;2024-02-26T09:19:58;102426.72;;;0.86;40.72
69247;BME280;56358;56.328;43.992;2024-02-26T09:21:58;102417.84;;;1.02;40.85
69247;BME280;56358;56.328;43.992;2024-02-26T09:23:59;102416.09;;;0.99;40.62
69247;BME280;56358;56.328;43.992;2024-02-26T09:26:00;102314.41;;;0.37;41.18
69247;BME280;56358;56.328;43.992;2024-02-26T09:28:01;102430.81;;;1.30;40.41
69247;BME280;56358;56.328;43.992;2024-02-26T09:30:02;102413.84;;;1.57;39.42
69247;BME280;56358;56.328;43.992;2024-02-26T09:32:05;102415.63;;;1.55;38.76
69247;BME280;56358;56.328;43.992;2024-02-26T09:34:07;102324.50;;;1.00;38.32
69247;BME280;56358;56.328;43.992;2024-02-26T09:36:08;102411.97;;;1.70;38.79
69247;BME280;56358;56.328;43.992;2024-02-26T09:38:10;102406.66;;;1.70;37.15
69247;BME280;56358;56.328;43.992;2024-02-26T09:40:11;102424.38;;;1.65;37.57
69247;BME280;56358;56.328;43.992;2024-02-26T09:42:12;102420.09;;;1.52;37.76
69247;BME280;56358;56.328;43.992;2024-02-26T09:44:16;102411.25;;;1.53;37.89
69247;BME280;56358;56.328;43.992;2024-02-26T09:46:18;102399.94;;;1.40;37.41
69247;BME280;56358;56.328;43.992;2024-02-26T09:48:21;102405.09;;;1.52;37.96
69247;BME280;56358;56.328;43.992;2024-02-26T09:50:22;102405.94;;;1.57;38.41
69247;BME280;56358;56.328;43.992;2024-02-26T09:52:23;102412.03;;;1.64;37.65
69247;BME280;56358;56.328;43.992;2024-02-26T09:54:26;102272.81;;;0.73;36.86
69247;BME280;56358;56.328;43.992;2024-02-26T09:56:29;102411.31;;;1.46;36.80
69247;BME280;56358;56.328;43.992;2024-02-26T09:58:31;102401.66;;;1.39;37.10
69247;BME280;56358;56.328;43.992;2024-02-26T10:00:32;102384.19;;;1.24;37.74
69247;BME280;56358;56.328;43.992;2024-02-26T10:02:38;102388.59;;;1.25;37.68
69247;BME280;56358;56.328;43.992;2024-02-26T10:04:39;102411.44;;;1.31;37.35
69247;BME280;56358;56.328;43.992;2024-02-26T10:06:41;102356.28;;;0.91;37.31
69247;BME280;56358;56.328;43.992;2024-02-26T10:08:45;102365.91;;;0.96;37.68
69247;BME280;56358;56.328;43.992;2024-02-26T10:10:46;102392.28;;;1.04;37.10
69247;BME280;56358;56.328;43.992;2024-02-26T10:12:46;102373.00;;;0.93;37.38
69247;BME280;56358;56.328;43.992;2024-02-26T10:14:47;102382.56;;;1.08;37.49
69247;BME280;56358;56.328;43.992;2024-02-26T10:16:50;102390.41;;;1.19;37.76
69247;BME280;56358;56.328;43.992;2024-02-26T10:18:52;102374.66;;;1.06;38.40
69247;BME280;56358;56.328;43.992;2024-02-26T10:21:01;102378.16;;;1.07;38.31
69247;BME280;56358;56.328;43.992;2024-02-26T10:23:03;102344.03;;;0.77;38.63
69247;BME280;56358;56.328;43.992;2024-02-26T10:25:04;102398.38;;;1.15;37.57